createdAt,value
2022-12-12T00:06:20.872Z,36.43
2022-12-12T00:21:19.276Z,37.92
2022-12-12T00:36:13.903Z,36.18
2022-12-12T00:51:09.408Z,35.34
2022-12-12T01:06:02.149Z,43.09
2022-12-12T01:20:51.802Z,39.97
2022-12-12T01:35:41.646Z,38.40
2022-12-12T01:50:30.374Z,38.01
2022-12-12T02:05:22.112Z,33.32
2022-12-12T02:20:37.628Z,37.82
2022-12-12T02:36:08.368Z,35.26
2022-12-12T02:51:02.762Z,39.88
2022-12-12T03:06:22.204Z,35.97
2022-12-12T03:21:18.554Z,37.89
2022-12-12T03:36:17.427Z,37.30
2022-12-12T03:51:16.569Z,35.48
2022-12-12T04:06:28.022Z,30.66
2022-12-12T04:22:03.679Z,27.72
2022-12-12T04:36:59.498Z,29.31
2022-12-12T04:51:48.421Z,29.37
2022-12-12T05:06:38.218Z,24.73
2022-12-12T05:21:28.277Z,24.83
2022-12-12T05:36:18.683Z,25.66
2022-12-12T05:51:08.216Z,25.27
2022-12-12T06:05:58.263Z,24.74
2022-12-12T06:20:47.928Z,21.24
2022-12-12T06:35:37.710Z,17.88
2022-12-12T06:50:27.734Z,14.36
2022-12-12T07:05:17.041Z,15.36
2022-12-12T07:34:56.932Z,17.61
2022-12-12T07:49:46.562Z,17.41
2022-12-12T08:04:36.560Z,20.83
2022-12-12T08:19:26.411Z,21.04
2022-12-12T08:49:06.350Z,19.94
2022-12-12T09:03:55.873Z,22.79
2022-12-12T09:18:49.032Z,25.94
2022-12-12T09:33:35.511Z,25.93
2022-12-12T09:48:28.471Z,27.57
2022-12-12T10:03:30.174Z,30.39
2022-12-12T10:18:33.020Z,36.34
2022-12-12T10:33:30.712Z,38.51
2022-12-12T10:48:24.017Z,36.09
2022-12-12T11:03:22.796Z,38.62
2022-12-12T11:33:22.193Z,36.67
2022-12-12T11:48:33.860Z,36.20
2022-12-12T12:03:50.915Z,31.49
2022-12-12T12:34:24.121Z,27.42
2022-12-12T12:49:19.820Z,25.66
2022-12-12T13:04:12.029Z,29.28
2022-12-12T13:19:05.188Z,27.73
2022-12-12T13:49:03.047Z,23.39
2022-12-12T14:03:57.457Z,31.14
2022-12-12T14:18:50.606Z,29.51
2022-12-12T14:34:07.283Z,28.57
2022-12-12T14:49:03.243Z,29.91
2022-12-12T15:03:57.140Z,25.76
2022-12-12T15:18:41.412Z,34.82
2022-12-12T15:33:31.527Z,35.33
2022-12-12T15:48:21.050Z,37.20
2022-12-12T16:03:16.587Z,36.21
2022-12-12T16:18:12.904Z,36.16
2022-12-12T16:33:20.935Z,41.98
2022-12-12T16:48:16.277Z,36.10
2022-12-12T17:03:05.294Z,39.32
2022-12-12T17:17:55.475Z,43.80
2022-12-12T17:33:16.511Z,41.37
2022-12-12T17:47:35.060Z,44.16
2022-12-12T18:02:25.459Z,40.71
2022-12-12T18:17:15.736Z,42.23
2022-12-12T18:32:06.111Z,36.77
2022-12-12T18:46:55.965Z,37.11
2022-12-12T19:01:46.150Z,41.64
2022-12-12T19:16:35.896Z,35.73
2022-12-12T19:31:25.808Z,35.23
2022-12-12T19:46:17.193Z,40.93
2022-12-12T20:01:09.199Z,42.73
2022-12-12T20:15:59.196Z,41.03
2022-12-12T20:30:53.294Z,39.74
2022-12-12T20:45:37.992Z,39.64
2022-12-12T21:00:29.004Z,40.70
2022-12-12T21:15:20.042Z,39.48
2022-12-12T21:30:08.579Z,41.06
2022-12-12T21:44:58.363Z,38.79
2022-12-12T21:59:46.620Z,38.82
2022-12-12T22:14:36.338Z,42.67
2022-12-12T22:29:25.761Z,41.97
2022-12-12T22:44:14.998Z,37.01
2022-12-12T22:59:04.945Z,34.08
2022-12-12T23:13:53.448Z,37.13
2022-12-12T23:28:42.274Z,31.03
2022-12-12T23:43:31.440Z,28.72
2022-12-12T23:58:20.858Z,22.98
